createdAt,value
2023-04-03T00:01:09.578Z,0.73
2023-04-03T00:03:37.809Z,0.80
2023-04-03T00:06:07.868Z,0.70
2023-04-03T00:08:35.485Z,0.80
2023-04-03T00:11:03.487Z,0.80
2023-04-03T00:13:31.246Z,0.77
2023-04-03T00:15:58.649Z,0.80
2023-04-03T00:18:26.555Z,0.70
2023-04-03T00:20:53.996Z,0.70
2023-04-03T00:23:21.471Z,0.63
2023-04-03T00:25:48.978Z,0.80
2023-04-03T00:28:16.368Z,0.60
2023-04-03T00:30:43.939Z,0.93
2023-04-03T00:33:13.900Z,0.70
2023-04-03T00:35:41.634Z,0.70
2023-04-03T00:38:09.370Z,0.70
2023-04-03T00:40:41.176Z,0.60
2023-04-03T00:43:19.591Z,0.70
2023-04-03T00:45:51.556Z,0.70
2023-04-03T00:48:21.941Z,0.60
2023-04-03T00:50:50.037Z,0.60
2023-04-03T00:53:23.421Z,0.77
2023-04-03T00:55:51.715Z,0.60
2023-04-03T00:58:21.815Z,1.00
2023-04-03T01:00:57.099Z,0.93
2023-04-03T01:03:24.642Z,0.77
2023-04-03T01:05:52.607Z,0.70
2023-04-03T01:08:20.221Z,0.77
2023-04-03T01:10:47.527Z,0.67
2023-04-03T01:13:23.880Z,1.00
2023-04-03T01:15:51.390Z,0.60
2023-04-03T01:18:18.924Z,0.90
2023-04-03T01:21:03.744Z,0.80
2023-04-03T01:23:35.165Z,0.77
2023-04-03T01:26:02.610Z,0.80
2023-04-03T01:28:32.095Z,0.97
2023-04-03T01:31:21.173Z,0.70
2023-04-03T01:33:48.759Z,0.83
2023-04-03T01:36:18.186Z,0.70
2023-04-03T01:38:45.606Z,0.90
2023-04-03T01:41:13.046Z,0.60
2023-04-03T01:43:40.687Z,0.80
2023-04-03T01:46:09.031Z,0.80
2023-04-03T01:48:36.612Z,0.93
2023-04-03T01:51:04.132Z,0.70
2023-04-03T01:53:31.750Z,0.80
2023-04-03T01:55:59.196Z,0.90
2023-04-03T01:58:26.953Z,0.80
2023-04-03T02:00:55.164Z,0.80
2023-04-03T02:03:22.837Z,1.00
2023-04-03T02:05:50.337Z,0.97
2023-04-03T02:08:19.154Z,0.80
2023-04-03T02:10:48.844Z,1.13
2023-04-03T02:13:16.665Z,0.97
2023-04-03T02:15:44.188Z,0.87
2023-04-03T02:18:11.565Z,0.90
2023-04-03T02:20:39.638Z,0.73
2023-04-03T02:23:07.345Z,0.93
2023-04-03T02:25:37.173Z,0.80
2023-04-03T02:28:06.053Z,0.90
2023-04-03T02:30:33.521Z,0.90
2023-04-03T02:33:01.017Z,0.87
2023-04-03T02:35:28.587Z,0.70
2023-04-03T02:37:56.885Z,0.80
2023-04-03T02:40:24.286Z,0.70
2023-04-03T02:42:51.825Z,0.93
2023-04-03T02:45:19.265Z,0.87
2023-04-03T02:47:49.099Z,1.20
2023-04-03T02:50:16.634Z,0.80
2023-04-03T02:52:45.130Z,1.10
2023-04-03T02:55:15.728Z,0.73
2023-04-03T02:57:43.348Z,1.10
2023-04-03T03:00:11.094Z,1.10
2023-04-03T03:02:38.533Z,1.00
2023-04-03T03:05:07.112Z,1.10
2023-04-03T03:07:35.086Z,1.10
2023-04-03T03:10:02.615Z,1.60
2023-04-03T03:12:31.534Z,1.03
2023-04-03T03:15:00.223Z,1.23
2023-04-03T03:17:27.706Z,1.10
2023-04-03T03:19:55.368Z,1.50
2023-04-03T03:22:22.788Z,1.57
2023-04-03T03:24:50.372Z,1.90
2023-04-03T03:27:18.167Z,1.20
2023-04-03T03:29:45.996Z,1.40
2023-04-03T03:32:13.482Z,1.13
2023-04-03T03:34:41.006Z,1.40
2023-04-03T03:37:08.643Z,1.17
2023-04-03T03:39:36.280Z,1.30
2023-04-03T03:42:03.723Z,1.40
2023-04-03T03:44:31.503Z,1.50
2023-04-03T03:46:58.964Z,1.43
2023-04-03T03:49:26.542Z,1.60
2023-04-03T03:51:53.973Z,1.27
2023-04-03T03:54:21.660Z,1.13
2023-04-03T03:56:49.238Z,1.27
2023-04-03T03:59:17.647Z,1.37
2023-04-03T04:01:45.518Z,1.90
2023-04-03T04:04:13.019Z,1.10
2023-04-03T04:06:40.736Z,1.47
2023-04-03T04:09:08.129Z,1.33
2023-04-03T04:11:35.627Z,1.87
2023-04-03T04:14:03.035Z,2.23
2023-04-03T04:16:30.553Z,1.70
2023-04-03T04:18:58.076Z,2.10
2023-04-03T04:21:25.594Z,1.83
2023-04-03T04:23:52.982Z,1.93
2023-04-03T04:26:21.310Z,2.13
2023-04-03T04:28:48.651Z,1.87
2023-04-03T04:31:16.116Z,2.30
2023-04-03T04:33:43.532Z,1.70
2023-04-03T04:36:11.197Z,1.93
2023-04-03T04:38:39.655Z,1.40
2023-04-03T04:41:07.052Z,1.60
2023-04-03T04:43:34.607Z,1.50
2023-04-03T04:46:06.144Z,1.50
2023-04-03T04:48:33.705Z,1.83
2023-04-03T04:51:01.416Z,1.63
2023-04-03T04:53:28.951Z,1.40
2023-04-03T04:55:56.483Z,1.70
2023-04-03T04:58:23.876Z,2.00
2023-04-03T05:00:51.327Z,1.43
2023-04-03T05:03:18.679Z,1.47
2023-04-03T05:05:46.362Z,1.93
2023-04-03T05:08:13.929Z,1.50
2023-04-03T05:10:42.618Z,1.50
2023-04-03T05:13:10.091Z,1.47
2023-04-03T05:15:37.750Z,1.40
2023-04-03T05:18:06.323Z,1.80
2023-04-03T05:20:34.360Z,1.60
2023-04-03T05:23:01.916Z,1.70
2023-04-03T05:25:29.501Z,2.17
2023-04-03T05:27:57.127Z,1.70
2023-04-03T05:30:24.608Z,1.93
2023-04-03T05:32:52.438Z,2.27
2023-04-03T05:35:20.227Z,1.90
2023-04-03T05:37:47.814Z,1.97
2023-04-03T05:40:18.171Z,1.90
2023-04-03T05:42:46.335Z,2.03
2023-04-03T05:45:13.791Z,2.20
2023-04-03T05:47:41.300Z,2.20
2023-04-03T05:50:09.071Z,2.20
2023-04-03T05:52:42.375Z,2.20
2023-04-03T05:55:09.985Z,2.20
2023-04-03T05:57:37.607Z,2.27
2023-04-03T06:00:07.426Z,1.97
2023-04-03T06:02:34.892Z,2.03
2023-04-03T06:05:02.516Z,2.27
2023-04-03T06:07:30.098Z,2.27
2023-04-03T06:09:58.212Z,2.03
2023-04-03T06:12:26.002Z,2.50
2023-04-03T06:14:53.483Z,1.80
2023-04-03T06:17:21.542Z,2.03
2023-04-03T06:19:49.206Z,1.80
2023-04-03T06:22:16.820Z,1.90
2023-04-03T06:24:44.882Z,1.90
2023-04-03T06:27:13.535Z,2.00
2023-04-03T06:29:41.093Z,1.77
2023-04-03T06:32:08.519Z,1.93
2023-04-03T06:34:36.548Z,2.00
2023-04-03T06:37:04.124Z,2.10
2023-04-03T06:39:31.729Z,2.00
2023-04-03T06:41:59.174Z,2.03
2023-04-03T06:44:26.712Z,2.13
2023-04-03T06:46:55.465Z,2.00
2023-04-03T06:49:23.148Z,2.23
2023-04-03T06:51:51.127Z,2.20
2023-04-03T06:54:19.474Z,2.07
2023-04-03T06:56:47.030Z,2.33
2023-04-03T06:59:16.031Z,2.30
2023-04-03T07:01:43.608Z,2.00
2023-04-03T07:04:11.600Z,2.30
2023-04-03T07:06:39.171Z,2.20
2023-04-03T07:09:06.644Z,2.00
2023-04-03T07:11:33.966Z,2.20
2023-04-03T07:14:01.324Z,2.13
2023-04-03T07:16:28.934Z,2.17
2023-04-03T07:18:56.497Z,1.90
2023-04-03T07:21:23.902Z,2.40
2023-04-03T07:23:51.883Z,2.20
2023-04-03T07:26:19.406Z,2.30
2023-04-03T07:28:49.779Z,2.27
2023-04-03T07:31:19.483Z,2.40
2023-04-03T07:33:47.311Z,2.07
2023-04-03T07:36:19.478Z,1.90
2023-04-03T07:38:47.208Z,1.97
2023-04-03T07:41:18.857Z,2.40
2023-04-03T07:43:47.695Z,2.20
2023-04-03T07:46:15.326Z,2.13
2023-04-03T07:48:42.900Z,2.10
2023-04-03T07:51:10.775Z,2.40
2023-04-03T07:53:38.232Z,1.77
2023-04-03T07:56:06.021Z,1.73
2023-04-03T07:58:34.110Z,1.87
2023-04-03T08:01:01.825Z,1.80
2023-04-03T08:03:29.456Z,1.90
2023-04-03T08:05:57.207Z,1.20
2023-04-03T08:08:24.984Z,2.17
2023-04-03T08:10:53.971Z,1.00
2023-04-03T08:13:22.043Z,1.40
2023-04-03T08:15:49.670Z,1.23
2023-04-03T08:18:17.647Z,1.40
2023-04-03T08:20:45.257Z,1.30
2023-04-03T08:23:12.742Z,0.90
2023-04-03T08:25:41.580Z,1.20
2023-04-03T08:28:09.500Z,1.00
2023-04-03T08:30:37.300Z,0.90
2023-04-03T08:33:05.332Z,0.90
2023-04-03T08:35:32.939Z,1.30
2023-04-03T08:38:00.523Z,1.00
2023-04-03T08:40:28.045Z,1.00
2023-04-03T08:42:58.686Z,0.90
2023-04-03T08:45:35.410Z,0.90
2023-04-03T08:48:08.630Z,0.80
2023-04-03T08:50:40.226Z,0.60
2023-04-03T08:53:08.140Z,0.80
2023-04-03T08:55:48.485Z,1.10
2023-04-03T08:58:30.462Z,0.80
2023-04-03T09:01:00.284Z,0.90
2023-04-03T09:03:31.355Z,0.70
2023-04-03T09:06:04.843Z,0.60
2023-04-03T09:08:34.770Z,0.50
2023-04-03T09:11:08.445Z,0.50
2023-04-03T09:13:43.252Z,0.40
2023-04-03T09:16:39.922Z,0.40
2023-04-03T09:19:27.647Z,0.40
2023-04-03T09:21:55.442Z,0.30
2023-04-03T09:24:25.046Z,0.40
2023-04-03T09:26:52.481Z,0.20
2023-04-03T09:29:21.813Z,0.30
2023-04-03T09:31:50.309Z,0.30
2023-04-03T09:34:18.382Z,0.30
2023-04-03T09:36:46.932Z,0.30
2023-04-03T09:39:16.224Z,0.20
2023-04-03T09:41:44.760Z,0.20
2023-04-03T09:44:25.327Z,0.30
2023-04-03T09:46:52.792Z,0.50
2023-04-03T09:49:20.927Z,0.40
2023-04-03T09:51:48.607Z,0.30
2023-04-03T09:54:41.605Z,0.30
2023-04-03T09:57:11.382Z,0.50
2023-04-03T09:59:41.227Z,0.40
2023-04-03T10:02:08.647Z,0.30
2023-04-03T10:04:43.158Z,0.13
2023-04-03T10:07:29.171Z,0.20
2023-04-03T10:10:01.172Z,0.23
2023-04-03T10:12:28.627Z,0.20
2023-04-03T10:14:57.515Z,0.20
2023-04-03T10:17:37.488Z,0.37
2023-04-03T10:20:08.842Z,0.30
2023-04-03T10:22:45.982Z,0.20
2023-04-03T10:25:24.283Z,0.30
2023-04-03T10:28:01.815Z,0.30
2023-04-03T10:30:32.634Z,0.33
2023-04-03T10:33:20.466Z,0.40
2023-04-03T10:36:12.989Z,0.30
2023-04-03T10:38:43.565Z,0.30
2023-04-03T10:41:29.640Z,0.30
2023-04-03T10:44:06.000Z,0.30
2023-04-03T10:46:46.702Z,0.30
2023-04-03T10:49:32.795Z,0.30
2023-04-03T10:52:19.807Z,0.20
2023-04-03T10:55:26.209Z,0.30
2023-04-03T10:57:56.258Z,0.20
2023-04-03T11:00:27.166Z,0.20
2023-04-03T11:02:57.843Z,0.67
2023-04-03T11:05:34.365Z,0.20
2023-04-03T11:08:23.792Z,0.10
2023-04-03T11:10:52.371Z,0.30
2023-04-03T11:13:32.950Z,0.30
2023-04-03T11:16:03.640Z,0.17
2023-04-03T11:18:37.492Z,0.20
2023-04-03T11:21:35.857Z,1.10
2023-04-03T11:24:08.929Z,1.00
2023-04-03T11:26:39.496Z,0.30
2023-04-03T11:29:10.271Z,0.30
2023-04-03T11:32:03.717Z,0.10
2023-04-03T11:34:32.880Z,0.10
2023-04-03T11:37:01.698Z,0.13
2023-04-03T11:39:33.426Z,0.20
2023-04-03T11:42:27.033Z,0.10
2023-04-03T11:45:14.416Z,0.10
2023-04-03T11:47:49.785Z,0.23
2023-04-03T11:50:32.582Z,0.20
2023-04-03T11:53:01.569Z,0.10
2023-04-03T11:55:29.003Z,0.10
2023-04-03T11:57:56.968Z,0.23
2023-04-03T12:00:42.951Z,0.10
2023-04-03T12:03:43.574Z,0.10
2023-04-03T12:06:11.528Z,0.10
2023-04-03T12:08:42.668Z,0.20
2023-04-03T12:11:10.347Z,0.10
2023-04-03T12:13:37.819Z,0.10
2023-04-03T12:16:06.281Z,0.20
2023-04-03T12:18:54.031Z,0.10
2023-04-03T12:21:33.880Z,0.10
2023-04-03T12:24:21.763Z,0.20
2023-04-03T12:26:52.334Z,0.20
2023-04-03T12:29:24.922Z,0.10
2023-04-03T12:32:11.761Z,0.20
2023-04-03T12:34:57.766Z,0.10
2023-04-03T12:37:43.845Z,0.10
2023-04-03T12:40:11.431Z,0.50
2023-04-03T12:42:55.048Z,0.10
2023-04-03T12:45:23.723Z,0.10
2023-04-03T12:47:52.789Z,0.17
2023-04-03T12:50:27.211Z,0.15
2023-04-03T12:52:58.650Z,0.20
2023-04-03T12:55:26.231Z,0.20
2023-04-03T12:57:53.887Z,0.20
2023-04-03T13:00:40.756Z,0.20
2023-04-03T13:03:21.629Z,0.20
2023-04-03T13:05:49.198Z,0.20
2023-04-03T13:08:17.484Z,0.20
2023-04-03T13:10:51.403Z,0.10
2023-04-03T13:13:19.132Z,0.10
2023-04-03T13:15:50.074Z,0.20
2023-04-03T13:18:28.227Z,0.10
2023-04-03T13:20:59.221Z,0.10
2023-04-03T13:23:26.869Z,0.30
2023-04-03T13:25:54.651Z,0.10
2023-04-03T13:28:24.081Z,0.10
2023-04-03T13:31:11.811Z,0.20
2023-04-03T13:33:39.516Z,0.20
2023-04-03T13:36:19.402Z,0.30
2023-04-03T13:38:46.864Z,0.10
2023-04-03T13:41:25.661Z,0.10
2023-04-03T13:43:57.580Z,0.20
2023-04-03T13:46:29.377Z,0.20
2023-04-03T13:48:58.282Z,0.20
2023-04-03T13:51:30.530Z,0.20
2023-04-03T13:53:59.932Z,0.20
2023-04-03T13:56:43.015Z,0.10
2023-04-03T13:59:13.528Z,0.20
2023-04-03T14:01:46.332Z,0.20
2023-04-03T14:04:20.377Z,0.20
2023-04-03T14:06:48.615Z,0.10
2023-04-03T14:09:17.184Z,0.28
2023-04-03T14:11:44.935Z,0.20
2023-04-03T14:14:17.389Z,0.28
2023-04-03T14:16:47.220Z,0.15
2023-04-03T14:19:41.565Z,0.20
2023-04-03T14:22:19.660Z,0.20
2023-04-03T14:24:47.681Z,0.30
2023-04-03T14:27:18.289Z,0.60
2023-04-03T14:29:45.841Z,0.20
2023-04-03T14:32:15.337Z,0.20
2023-04-03T14:34:44.001Z,0.20
2023-04-03T14:37:12.973Z,0.50
2023-04-03T14:39:40.477Z,0.38
2023-04-03T14:42:08.088Z,0.30
2023-04-03T14:44:35.885Z,0.20
2023-04-03T14:47:03.655Z,0.20
2023-04-03T14:49:31.704Z,0.30
2023-04-03T14:51:59.818Z,0.20
2023-04-03T14:54:29.116Z,0.30
2023-04-03T14:56:58.767Z,0.52
2023-04-03T14:59:26.846Z,0.20
2023-04-03T15:01:54.368Z,0.30
2023-04-03T15:04:23.049Z,0.35
2023-04-03T15:06:52.601Z,0.20
2023-04-03T15:09:25.397Z,0.30
2023-04-03T15:11:53.329Z,0.20
2023-04-03T15:14:35.191Z,0.30
2023-04-03T15:17:05.863Z,0.30
2023-04-03T15:19:38.139Z,0.20
2023-04-03T15:22:06.151Z,0.30
2023-04-03T15:24:33.583Z,0.35
2023-04-03T15:27:02.712Z,0.30
2023-04-03T15:29:31.376Z,0.28
2023-04-03T15:31:58.729Z,0.50
2023-04-03T15:34:26.365Z,0.30
2023-04-03T15:36:56.620Z,0.30
2023-04-03T15:39:24.657Z,0.35
2023-04-03T15:41:53.237Z,0.30
2023-04-03T15:44:20.927Z,0.40
2023-04-03T15:46:49.932Z,0.40
2023-04-03T15:49:18.124Z,0.30
2023-04-03T15:51:45.746Z,0.40
2023-04-03T15:54:13.327Z,0.32
2023-04-03T15:56:40.845Z,0.40
2023-04-03T15:59:08.444Z,0.40
2023-04-03T16:01:36.134Z,0.40
2023-04-03T16:04:03.745Z,0.33
2023-04-03T16:06:31.834Z,0.50
2023-04-03T16:08:59.386Z,0.40
2023-04-03T16:11:27.327Z,0.67
2023-04-03T16:13:55.563Z,0.40
2023-04-03T16:16:23.713Z,0.60
2023-04-03T16:18:51.485Z,1.17
2023-04-03T16:21:19.095Z,0.50
2023-04-03T16:23:47.564Z,0.50
2023-04-03T16:26:15.554Z,0.50
2023-04-03T16:28:43.111Z,0.53
2023-04-03T16:31:11.262Z,0.60
2023-04-03T16:33:38.854Z,0.50
2023-04-03T16:36:06.809Z,0.50
2023-04-03T16:38:34.190Z,0.40
2023-04-03T16:41:05.556Z,0.47
2023-04-03T16:43:33.973Z,0.70
2023-04-03T16:46:03.524Z,0.50
2023-04-03T16:48:31.706Z,0.57
2023-04-03T16:50:59.372Z,0.50
2023-04-03T16:53:27.933Z,0.60
2023-04-03T16:55:55.966Z,0.50
2023-04-03T16:58:24.234Z,0.57
2023-04-03T17:00:52.460Z,0.90
2023-04-03T17:03:20.010Z,0.90
2023-04-03T17:05:50.293Z,0.70
2023-04-03T17:08:19.182Z,0.70
2023-04-03T17:10:46.928Z,0.67
2023-04-03T17:13:14.499Z,0.90
2023-04-03T17:15:42.760Z,0.90
2023-04-03T17:18:10.406Z,0.80
2023-04-03T17:20:39.384Z,0.73
2023-04-03T17:23:07.162Z,0.90
2023-04-03T17:25:34.653Z,0.93
2023-04-03T17:28:02.136Z,0.80
2023-04-03T17:30:29.604Z,0.90
2023-04-03T17:32:57.129Z,1.00
2023-04-03T17:35:24.831Z,1.00
2023-04-03T17:37:53.361Z,0.90
2023-04-03T17:40:20.925Z,0.70
2023-04-03T17:42:48.527Z,1.33
2023-04-03T17:45:16.241Z,1.30
2023-04-03T17:47:43.828Z,0.90
2023-04-03T17:50:11.645Z,1.00
2023-04-03T17:52:39.151Z,1.00
2023-04-03T17:55:06.801Z,0.90
2023-04-03T17:57:34.278Z,1.30
2023-04-03T18:00:01.685Z,0.90
2023-04-03T18:02:30.205Z,1.10
2023-04-03T18:04:57.962Z,0.93
2023-04-03T18:07:26.128Z,1.10
2023-04-03T18:09:53.737Z,1.00
2023-04-03T18:12:21.498Z,0.93
2023-04-03T18:14:49.542Z,1.20
2023-04-03T18:17:16.946Z,1.10
2023-04-03T18:19:44.450Z,1.03
2023-04-03T18:22:16.784Z,1.20
2023-04-03T18:24:44.717Z,1.10
2023-04-03T18:27:13.787Z,1.20
2023-04-03T18:29:42.169Z,1.10
2023-04-03T18:32:13.258Z,1.23
2023-04-03T18:34:41.117Z,0.90
2023-04-03T18:37:08.762Z,1.33
2023-04-03T18:39:36.342Z,1.33
2023-04-03T18:42:15.594Z,1.30
2023-04-03T18:44:43.999Z,1.60
2023-04-03T18:47:11.707Z,1.30
2023-04-03T18:49:40.408Z,1.37
2023-04-03T18:52:07.884Z,1.20
2023-04-03T18:54:37.486Z,1.20
2023-04-03T18:57:05.352Z,1.20
2023-04-03T18:59:32.927Z,1.00
2023-04-03T19:02:01.151Z,1.20
2023-04-03T19:04:29.630Z,1.20
2023-04-03T19:06:57.242Z,1.40
2023-04-03T19:09:26.742Z,1.13
2023-04-03T19:11:54.138Z,1.03
2023-04-03T19:14:21.655Z,1.10
2023-04-03T19:16:49.269Z,0.90
2023-04-03T19:19:16.868Z,1.10
2023-04-03T19:21:44.366Z,0.93
2023-04-03T19:24:15.553Z,1.20
2023-04-03T19:26:43.328Z,1.20
2023-04-03T19:29:11.036Z,1.20
2023-04-03T19:31:39.037Z,1.30
2023-04-03T19:34:07.229Z,1.07
2023-04-03T19:36:35.233Z,1.10
2023-04-03T19:39:03.243Z,1.37
2023-04-03T19:41:31.805Z,0.97
2023-04-03T19:43:59.305Z,1.40
2023-04-03T19:46:27.809Z,1.20
2023-04-03T19:48:55.750Z,1.10
2023-04-03T19:51:23.283Z,1.00
2023-04-03T19:53:51.063Z,1.07
2023-04-03T19:56:18.565Z,1.00
2023-04-03T19:58:46.183Z,1.10
2023-04-03T20:01:13.641Z,1.30
2023-04-03T20:03:42.138Z,1.10
2023-04-03T20:06:09.727Z,1.00
2023-04-03T20:08:37.604Z,0.97
2023-04-03T20:11:06.043Z,0.80
2023-04-03T20:13:33.531Z,1.03
2023-04-03T20:16:04.946Z,1.17
2023-04-03T20:18:32.677Z,1.10
2023-04-03T20:21:01.891Z,1.10
2023-04-03T20:23:30.038Z,1.00
2023-04-03T20:26:09.404Z,0.80
2023-04-03T20:28:38.753Z,0.80
2023-04-03T20:31:06.785Z,1.10
2023-04-03T20:33:35.484Z,1.30
2023-04-03T20:36:04.341Z,0.90
2023-04-03T20:38:32.007Z,0.90
2023-04-03T20:41:00.409Z,1.00
2023-04-03T20:43:28.537Z,0.97
2023-04-03T20:45:55.979Z,1.07
2023-04-03T20:48:23.710Z,1.03
2023-04-03T20:50:52.036Z,0.80
2023-04-03T20:53:20.800Z,1.00
2023-04-03T20:56:00.040Z,1.03
2023-04-03T20:58:30.664Z,1.03
2023-04-03T21:00:58.414Z,1.10
2023-04-03T21:03:26.665Z,1.20
2023-04-03T21:06:00.652Z,1.30
2023-04-03T21:08:48.009Z,1.20
2023-04-03T21:11:34.184Z,1.10
2023-04-03T21:14:20.249Z,0.97
2023-04-03T21:16:47.565Z,0.90
2023-04-03T21:19:21.795Z,1.00
2023-04-03T21:21:49.988Z,1.23
2023-04-03T21:24:20.485Z,1.00
2023-04-03T21:26:47.907Z,1.20
2023-04-03T21:29:16.255Z,0.97
2023-04-03T21:31:59.981Z,1.10
2023-04-03T21:34:28.841Z,1.20
2023-04-03T21:37:06.267Z,1.53
2023-04-03T21:39:34.302Z,1.00
2023-04-03T21:42:02.034Z,1.00
2023-04-03T21:44:29.550Z,1.10
2023-04-03T21:46:57.311Z,1.20
2023-04-03T21:49:25.976Z,1.10
2023-04-03T21:51:54.457Z,1.10
2023-04-03T21:54:22.646Z,1.10
2023-04-03T21:56:51.823Z,1.17
2023-04-03T21:59:19.715Z,1.10
2023-04-03T22:01:47.205Z,1.00
2023-04-03T22:04:18.412Z,1.17
2023-04-03T22:06:46.077Z,1.03
2023-04-03T22:09:13.512Z,1.00
2023-04-03T22:11:45.861Z,1.00
2023-04-03T22:14:13.577Z,1.00
2023-04-03T22:16:41.418Z,1.20
2023-04-03T22:19:08.805Z,1.07
2023-04-03T22:21:36.704Z,1.13
2023-04-03T22:24:04.501Z,0.90
2023-04-03T22:26:31.966Z,0.97
2023-04-03T22:28:59.589Z,0.90
2023-04-03T22:31:27.982Z,0.90
2023-04-03T22:33:56.246Z,1.30
2023-04-03T22:36:23.801Z,1.27
2023-04-03T22:38:51.403Z,1.23
2023-04-03T22:41:18.790Z,0.90
2023-04-03T22:43:46.453Z,1.00
2023-04-03T22:46:13.896Z,1.30
2023-04-03T22:48:45.562Z,0.90
2023-04-03T22:51:13.653Z,0.87
2023-04-03T22:53:40.897Z,1.10
2023-04-03T22:56:09.086Z,0.90
2023-04-03T22:58:37.046Z,1.10
2023-04-03T23:01:15.108Z,1.20
2023-04-03T23:03:43.402Z,1.03
2023-04-03T23:06:12.942Z,0.80
2023-04-03T23:08:41.153Z,1.10
2023-04-03T23:11:09.777Z,0.87
2023-04-03T23:13:37.412Z,1.00
2023-04-03T23:16:05.289Z,1.00
2023-04-03T23:18:33.131Z,0.97
2023-04-03T23:21:01.732Z,1.00
2023-04-03T23:23:29.218Z,1.00
2023-04-03T23:25:58.776Z,0.90
2023-04-03T23:28:26.519Z,0.73
2023-04-03T23:31:01.775Z,0.80
2023-04-03T23:33:30.792Z,0.90
2023-04-03T23:35:59.338Z,0.83
2023-04-03T23:38:27.370Z,0.90
2023-04-03T23:40:54.810Z,0.80
2023-04-03T23:43:22.089Z,1.03
2023-04-03T23:45:49.532Z,1.17
2023-04-03T23:48:17.208Z,1.43
2023-04-03T23:50:44.851Z,1.10
2023-04-03T23:53:15.167Z,0.87
2023-04-03T23:55:43.008Z,0.90
2023-04-03T23:58:13.766Z,1.10
